sensor_id;sensor_type;location;lat;lon;timestamp;P1;durP1;ratioP1;P2;durP2;ratioP2
14094;SDS011;18096;48.142;16.290;2024-01-11T00:00:05;23.87;;;10.77;;
14094;SDS011;18096;48.142;16.290;2024-01-11T00:02:31;25.13;;;8.87;;
14094;SDS011;18096;48.142;16.290;2024-01-11T00:04:57;17.97;;;8.97;;
14094;SDS011;18096;48.142;16.290;2024-01-11T00:07:23;14.70;;;7.40;;
14094;SDS011;18096;48.142;16.290;2024-01-11T00:09:48;14.80;;;7.60;;
14094;SDS011;18096;48.142;16.290;2024-01-11T00:12:14;22.93;;;10.33;;
14094;SDS011;18096;48.142;16.290;2024-01-11T00:14:40;24.87;;;9.70;;
14094;SDS011;18096;48.142;16.290;2024-01-11T00:17:06;17.10;;;8.20;;
14094;SDS011;18096;48.142;16.290;2024-01-11T00:19:31;27.00;;;10.93;;
14094;SDS011;18096;48.142;16.290;2024-01-11T00:21:57;19.53;;;7.57;;
14094;SDS011;18096;48.142;16.290;2024-01-11T00:24:23;18.60;;;9.07;;
14094;SDS011;18096;48.142;16.290;2024-01-11T00:26:48;23.13;;;9.10;;
14094;SDS011;18096;48.142;16.290;2024-01-11T00:29:14;28.53;;;10.80;;
14094;SDS011;18096;48.142;16.290;2024-01-11T00:31:40;15.80;;;8.07;;
14094;SDS011;18096;48.142;16.290;2024-01-11T00:34:05;15.33;;;8.13;;
14094;SDS011;18096;48.142;16.290;2024-01-11T00:36:31;19.27;;;8.80;;
14094;SDS011;18096;48.142;16.290;2024-01-11T00:38:58;16.77;;;7.93;;
14094;SDS011;18096;48.142;16.290;2024-01-11T00:41:24;21.40;;;8.90;;
14094;SDS011;18096;48.142;16.290;2024-01-11T00:43:50;18.67;;;8.10;;
14094;SDS011;18096;48.142;16.290;2024-01-11T00:46:16;22.10;;;10.07;;
14094;SDS011;18096;48.142;16.290;2024-01-11T00:48:41;16.87;;;10.57;;
14094;SDS011;18096;48.142;16.290;2024-01-11T00:51:07;13.33;;;7.53;;
14094;SDS011;18096;48.142;16.290;2024-01-11T00:53:33;21.60;;;8.00;;
14094;SDS011;18096;48.142;16.290;2024-01-11T00:55:59;14.77;;;8.37;;
14094;SDS011;18096;48.142;16.290;2024-01-11T00:58:25;17.10;;;6.97;;
14094;SDS011;18096;48.142;16.290;2024-01-11T01:00:51;18.77;;;9.80;;
14094;SDS011;18096;48.142;16.290;2024-01-11T01:03:18;14.50;;;8.17;;
14094;SDS011;18096;48.142;16.290;2024-01-11T01:05:44;15.30;;;9.33;;
14094;SDS011;18096;48.142;16.290;2024-01-11T01:08:11;11.13;;;7.20;;
14094;SDS011;18096;48.142;16.290;2024-01-11T01:10:37;20.90;;;8.37;;
14094;SDS011;18096;48.142;16.290;2024-01-11T01:13:03;18.43;;;7.70;;
14094;SDS011;18096;48.142;16.290;2024-01-11T01:15:30;20.00;;;7.60;;
14094;SDS011;18096;48.142;16.290;2024-01-11T01:17:56;21.97;;;8.77;;
14094;SDS011;18096;48.142;16.290;2024-01-11T01:20:22;16.60;;;7.10;;
14094;SDS011;18096;48.142;16.290;2024-01-11T01:22:49;17.20;;;6.77;;
14094;SDS011;18096;48.142;16.290;2024-01-11T01:25:14;16.97;;;7.70;;
14094;SDS011;18096;48.142;16.290;2024-01-11T01:27:40;12.93;;;7.50;;
14094;SDS011;18096;48.142;16.290;2024-01-11T01:30:06;20.17;;;7.77;;
14094;SDS011;18096;48.142;16.290;2024-01-11T01:32:33;23.03;;;8.07;;
14094;SDS011;18096;48.142;16.290;2024-01-11T01:34:59;19.90;;;7.67;;
14094;SDS011;18096;48.142;16.290;2024-01-11T01:37:25;13.60;;;8.77;;
14094;SDS011;18096;48.142;16.290;2024-01-11T01:39:51;17.47;;;8.50;;
14094;SDS011;18096;48.142;16.290;2024-01-11T01:42:16;17.87;;;7.13;;
14094;SDS011;18096;48.142;16.290;2024-01-11T01:44:42;13.63;;;7.77;;
14094;SDS011;18096;48.142;16.290;2024-01-11T01:47:08;17.07;;;7.10;;
14094;SDS011;18096;48.142;16.290;2024-01-11T01:49:36;16.53;;;8.17;;
14094;SDS011;18096;48.142;16.290;2024-01-11T01:52:03;12.63;;;8.13;;
14094;SDS011;18096;48.142;16.290;2024-01-11T01:54:31;11.43;;;7.37;;
14094;SDS011;18096;48.142;16.290;2024-01-11T01:56:57;16.47;;;6.63;;
14094;SDS011;18096;48.142;16.290;2024-01-11T01:59:24;12.83;;;7.67;;
14094;SDS011;18096;48.142;16.290;2024-01-11T02:01:51;18.40;;;7.33;;
14094;SDS011;18096;48.142;16.290;2024-01-11T02:04:17;12.53;;;7.10;;
14094;SDS011;18096;48.142;16.290;2024-01-11T02:06:44;23.90;;;8.60;;
14094;SDS011;18096;48.142;16.290;2024-01-11T02:09:11;15.53;;;7.33;;
14094;SDS011;18096;48.142;16.290;2024-01-11T02:11:38;12.57;;;6.43;;
14094;SDS011;18096;48.142;16.290;2024-01-11T02:14:05;12.70;;;7.63;;
14094;SDS011;18096;48.142;16.290;2024-01-11T02:16:32;21.87;;;7.90;;
14094;SDS011;18096;48.142;16.290;2024-01-11T02:18:58;8.00;;;6.40;;
14094;SDS011;18096;48.142;16.290;2024-01-11T02:21:24;17.53;;;9.17;;
14094;SDS011;18096;48.142;16.290;2024-01-11T02:23:58;15.37;;;7.67;;
14094;SDS011;18096;48.142;16.290;2024-01-11T02:26:30;17.97;;;7.53;;
14094;SDS011;18096;48.142;16.290;2024-01-11T02:28:56;13.47;;;6.97;;
14094;SDS011;18096;48.142;16.290;2024-01-11T02:31:22;16.30;;;8.17;;
14094;SDS011;18096;48.142;16.290;2024-01-11T02:33:48;16.67;;;6.87;;
14094;SDS011;18096;48.142;16.290;2024-01-11T02:36:15;10.80;;;7.53;;
14094;SDS011;18096;48.142;16.290;2024-01-11T02:38:42;12.30;;;7.43;;
14094;SDS011;18096;48.142;16.290;2024-01-11T02:41:07;14.03;;;6.73;;
14094;SDS011;18096;48.142;16.290;2024-01-11T02:43:33;22.50;;;6.57;;
14094;SDS011;18096;48.142;16.290;2024-01-11T02:46:02;9.90;;;6.03;;
14094;SDS011;18096;48.142;16.290;2024-01-11T02:48:31;14.30;;;7.93;;
14094;SDS011;18096;48.142;16.290;2024-01-11T02:50:57;10.77;;;6.00;;
14094;SDS011;18096;48.142;16.290;2024-01-11T02:53:23;15.80;;;7.27;;
14094;SDS011;18096;48.142;16.290;2024-01-11T02:55:49;10.93;;;6.47;;
14094;SDS011;18096;48.142;16.290;2024-01-11T02:58:15;14.70;;;7.50;;
14094;SDS011;18096;48.142;16.290;2024-01-11T03:00:41;14.50;;;7.00;;
14094;SDS011;18096;48.142;16.290;2024-01-11T03:03:07;17.03;;;7.60;;
14094;SDS011;18096;48.142;16.290;2024-01-11T03:05:33;20.83;;;7.93;;
14094;SDS011;18096;48.142;16.290;2024-01-11T03:07:58;12.70;;;6.17;;
14094;SDS011;18096;48.142;16.290;2024-01-11T03:10:24;24.23;;;7.90;;
14094;SDS011;18096;48.142;16.290;2024-01-11T03:12:50;16.20;;;6.93;;
14094;SDS011;18096;48.142;16.290;2024-01-11T03:15:15;9.23;;;6.03;;
14094;SDS011;18096;48.142;16.290;2024-01-11T03:17:41;19.20;;;6.17;;
14094;SDS011;18096;48.142;16.290;2024-01-11T03:20:07;7.80;;;5.77;;
14094;SDS011;18096;48.142;16.290;2024-01-11T03:22:33;11.17;;;6.70;;
14094;SDS011;18096;48.142;16.290;2024-01-11T03:24:59;24.43;;;6.73;;
14094;SDS011;18096;48.142;16.290;2024-01-11T03:27:25;14.90;;;7.67;;
14094;SDS011;18096;48.142;16.290;2024-01-11T03:29:51;20.13;;;7.60;;
14094;SDS011;18096;48.142;16.290;2024-01-11T03:32:16;16.97;;;7.37;;
14094;SDS011;18096;48.142;16.290;2024-01-11T03:34:42;17.77;;;7.97;;
14094;SDS011;18096;48.142;16.290;2024-01-11T03:37:08;17.50;;;7.70;;
14094;SDS011;18096;48.142;16.290;2024-01-11T03:39:34;22.43;;;6.77;;
14094;SDS011;18096;48.142;16.290;2024-01-11T03:42:00;13.07;;;6.53;;
14094;SDS011;18096;48.142;16.290;2024-01-11T03:44:26;9.13;;;6.90;;
14094;SDS011;18096;48.142;16.290;2024-01-11T03:46:51;19.00;;;8.53;;
14094;SDS011;18096;48.142;16.290;2024-01-11T03:49:17;7.33;;;5.67;;
14094;SDS011;18096;48.142;16.290;2024-01-11T03:51:43;11.27;;;6.97;;
14094;SDS011;18096;48.142;16.290;2024-01-11T03:54:09;10.67;;;5.80;;
14094;SDS011;18096;48.142;16.290;2024-01-11T03:56:38;16.40;;;7.87;;
14094;SDS011;18096;48.142;16.290;2024-01-11T03:59:04;14.37;;;6.37;;
14094;SDS011;18096;48.142;16.290;2024-01-11T04:01:31;13.37;;;6.47;;
14094;SDS011;18096;48.142;16.290;2024-01-11T04:03:57;22.27;;;9.23;;
14094;SDS011;18096;48.142;16.290;2024-01-11T04:06:22;10.97;;;6.03;;
14094;SDS011;18096;48.142;16.290;2024-01-11T04:08:51;14.10;;;6.53;;
14094;SDS011;18096;48.142;16.290;2024-01-11T04:11:17;12.53;;;7.03;;
14094;SDS011;18096;48.142;16.290;2024-01-11T04:13:43;13.37;;;6.50;;
14094;SDS011;18096;48.142;16.290;2024-01-11T04:16:09;10.17;;;7.23;;
14094;SDS011;18096;48.142;16.290;2024-01-11T04:18:34;12.00;;;6.30;;
14094;SDS011;18096;48.142;16.290;2024-01-11T04:21:00;18.00;;;8.20;;
14094;SDS011;18096;48.142;16.290;2024-01-11T04:23:26;12.50;;;6.37;;
14094;SDS011;18096;48.142;16.290;2024-01-11T04:25:51;8.03;;;6.07;;
14094;SDS011;18096;48.142;16.290;2024-01-11T04:28:17;11.73;;;6.70;;
14094;SDS011;18096;48.142;16.290;2024-01-11T04:30:43;14.23;;;6.70;;
14094;SDS011;18096;48.142;16.290;2024-01-11T04:33:09;20.50;;;8.17;;
14094;SDS011;18096;48.142;16.290;2024-01-11T04:35:35;25.83;;;8.63;;
14094;SDS011;18096;48.142;16.290;2024-01-11T04:38:01;11.07;;;6.40;;
14094;SDS011;18096;48.142;16.290;2024-01-11T04:40:27;19.13;;;9.43;;
14094;SDS011;18096;48.142;16.290;2024-01-11T04:42:54;40.53;;;7.87;;
14094;SDS011;18096;48.142;16.290;2024-01-11T04:45:20;18.27;;;8.63;;
14094;SDS011;18096;48.142;16.290;2024-01-11T04:47:45;16.93;;;7.70;;
14094;SDS011;18096;48.142;16.290;2024-01-11T04:50:11;22.83;;;9.63;;
14094;SDS011;18096;48.142;16.290;2024-01-11T04:52:37;20.57;;;8.27;;
14094;SDS011;18096;48.142;16.290;2024-01-11T04:55:02;17.43;;;7.20;;
14094;SDS011;18096;48.142;16.290;2024-01-11T04:57:28;14.30;;;9.00;;
14094;SDS011;18096;48.142;16.290;2024-01-11T04:59:54;38.97;;;9.33;;
14094;SDS011;18096;48.142;16.290;2024-01-11T05:02:22;11.13;;;7.13;;
14094;SDS011;18096;48.142;16.290;2024-01-11T05:04:48;17.10;;;8.37;;
14094;SDS011;18096;48.142;16.290;2024-01-11T05:07:14;22.47;;;7.37;;
14094;SDS011;18096;48.142;16.290;2024-01-11T05:09:39;16.03;;;8.97;;
14094;SDS011;18096;48.142;16.290;2024-01-11T05:12:05;17.47;;;7.83;;
14094;SDS011;18096;48.142;16.290;2024-01-11T05:14:31;13.97;;;7.50;;
14094;SDS011;18096;48.142;16.290;2024-01-11T05:16:57;15.23;;;7.53;;
14094;SDS011;18096;48.142;16.290;2024-01-11T05:19:22;24.07;;;10.23;;
14094;SDS011;18096;48.142;16.290;2024-01-11T05:21:48;17.73;;;8.40;;
14094;SDS011;18096;48.142;16.290;2024-01-11T05:24:14;20.67;;;8.70;;
14094;SDS011;18096;48.142;16.290;2024-01-11T05:26:39;22.67;;;9.80;;
14094;SDS011;18096;48.142;16.290;2024-01-11T05:29:05;17.37;;;8.60;;
14094;SDS011;18096;48.142;16.290;2024-01-11T05:31:31;31.20;;;8.53;;
14094;SDS011;18096;48.142;16.290;2024-01-11T05:33:56;20.30;;;8.87;;
14094;SDS011;18096;48.142;16.290;2024-01-11T05:36:22;21.30;;;8.30;;
14094;SDS011;18096;48.142;16.290;2024-01-11T05:38:48;11.03;;;6.87;;
14094;SDS011;18096;48.142;16.290;2024-01-11T05:41:14;10.43;;;6.00;;
14094;SDS011;18096;48.142;16.290;2024-01-11T05:43:40;20.67;;;8.57;;
14094;SDS011;18096;48.142;16.290;2024-01-11T05:46:07;21.10;;;8.47;;
14094;SDS011;18096;48.142;16.290;2024-01-11T05:48:33;24.07;;;10.20;;
14094;SDS011;18096;48.142;16.290;2024-01-11T05:50:58;20.60;;;8.23;;
14094;SDS011;18096;48.142;16.290;2024-01-11T05:53:25;22.97;;;9.87;;
14094;SDS011;18096;48.142;16.290;2024-01-11T05:55:52;18.83;;;8.20;;
14094;SDS011;18096;48.142;16.290;2024-01-11T05:58:18;29.90;;;12.43;;
14094;SDS011;18096;48.142;16.290;2024-01-11T06:00:45;20.27;;;8.93;;
14094;SDS011;18096;48.142;16.290;2024-01-11T06:03:13;20.53;;;9.87;;
14094;SDS011;18096;48.142;16.290;2024-01-11T06:05:39;19.80;;;10.87;;
14094;SDS011;18096;48.142;16.290;2024-01-11T06:08:05;14.53;;;7.97;;
14094;SDS011;18096;48.142;16.290;2024-01-11T06:10:31;15.93;;;8.00;;
14094;SDS011;18096;48.142;16.290;2024-01-11T06:12:56;20.10;;;8.80;;
14094;SDS011;18096;48.142;16.290;2024-01-11T06:15:22;27.63;;;10.20;;
14094;SDS011;18096;48.142;16.290;2024-01-11T06:17:48;30.07;;;10.37;;
14094;SDS011;18096;48.142;16.290;2024-01-11T06:20:14;34.30;;;11.43;;
14094;SDS011;18096;48.142;16.290;2024-01-11T06:22:39;14.47;;;9.10;;
14094;SDS011;18096;48.142;16.290;2024-01-11T06:25:05;23.37;;;9.70;;
14094;SDS011;18096;48.142;16.290;2024-01-11T06:27:31;20.70;;;8.97;;
14094;SDS011;18096;48.142;16.290;2024-01-11T06:29:56;32.73;;;12.23;;
14094;SDS011;18096;48.142;16.290;2024-01-11T06:32:23;26.37;;;11.33;;
14094;SDS011;18096;48.142;16.290;2024-01-11T06:34:49;22.43;;;11.03;;
14094;SDS011;18096;48.142;16.290;2024-01-11T06:37:14;24.73;;;9.30;;
14094;SDS011;18096;48.142;16.290;2024-01-11T06:39:40;20.00;;;9.77;;
14094;SDS011;18096;48.142;16.290;2024-01-11T06:42:05;24.57;;;9.50;;
14094;SDS011;18096;48.142;16.290;2024-01-11T06:44:31;19.37;;;8.13;;
14094;SDS011;18096;48.142;16.290;2024-01-11T06:46:57;18.07;;;8.10;;
14094;SDS011;18096;48.142;16.290;2024-01-11T06:49:22;26.73;;;10.03;;
14094;SDS011;18096;48.142;16.290;2024-01-11T06:51:48;32.93;;;9.47;;
14094;SDS011;18096;48.142;16.290;2024-01-11T06:54:14;23.50;;;10.23;;
14094;SDS011;18096;48.142;16.290;2024-01-11T06:56:39;17.97;;;10.53;;
14094;SDS011;18096;48.142;16.290;2024-01-11T06:59:06;24.43;;;9.70;;
14094;SDS011;18096;48.142;16.290;2024-01-11T07:01:32;19.63;;;9.43;;
14094;SDS011;18096;48.142;16.290;2024-01-11T07:03:58;27.77;;;10.53;;
14094;SDS011;18096;48.142;16.290;2024-01-11T07:06:24;19.43;;;10.30;;
14094;SDS011;18096;48.142;16.290;2024-01-11T07:08:49;23.23;;;10.00;;
14094;SDS011;18096;48.142;16.290;2024-01-11T07:11:15;34.80;;;10.80;;
14094;SDS011;18096;48.142;16.290;2024-01-11T07:13:41;32.80;;;10.03;;
14094;SDS011;18096;48.142;16.290;2024-01-11T07:16:07;21.20;;;9.10;;
14094;SDS011;18096;48.142;16.290;2024-01-11T07:18:33;21.43;;;9.57;;
14094;SDS011;18096;48.142;16.290;2024-01-11T07:20:59;22.57;;;10.33;;
14094;SDS011;18096;48.142;16.290;2024-01-11T07:23:26;26.43;;;8.83;;
14094;SDS011;18096;48.142;16.290;2024-01-11T07:25:52;19.50;;;9.50;;
14094;SDS011;18096;48.142;16.290;2024-01-11T07:28:18;24.43;;;8.07;;
14094;SDS011;18096;48.142;16.290;2024-01-11T07:30:44;14.33;;;7.77;;
14094;SDS011;18096;48.142;16.290;2024-01-11T07:33:11;19.87;;;9.67;;
14094;SDS011;18096;48.142;16.290;2024-01-11T07:35:36;26.57;;;11.70;;
14094;SDS011;18096;48.142;16.290;2024-01-11T07:38:02;25.83;;;11.47;;
14094;SDS011;18096;48.142;16.290;2024-01-11T07:40:29;17.57;;;9.53;;
14094;SDS011;18096;48.142;16.290;2024-01-11T07:42:54;20.90;;;10.40;;
14094;SDS011;18096;48.142;16.290;2024-01-11T07:45:22;24.93;;;11.53;;
14094;SDS011;18096;48.142;16.290;2024-01-11T07:47:47;18.43;;;9.63;;
14094;SDS011;18096;48.142;16.290;2024-01-11T07:50:14;31.90;;;9.53;;
14094;SDS011;18096;48.142;16.290;2024-01-11T07:52:40;22.23;;;8.67;;
14094;SDS011;18096;48.142;16.290;2024-01-11T07:55:06;31.00;;;9.67;;
14094;SDS011;18096;48.142;16.290;2024-01-11T07:57:33;23.63;;;9.70;;
14094;SDS011;18096;48.142;16.290;2024-01-11T07:59:59;30.07;;;10.20;;
14094;SDS011;18096;48.142;16.290;2024-01-11T08:02:25;14.03;;;8.90;;
14094;SDS011;18096;48.142;16.290;2024-01-11T08:04:51;29.80;;;9.80;;
14094;SDS011;18096;48.142;16.290;2024-01-11T08:07:18;23.60;;;8.93;;
14094;SDS011;18096;48.142;16.290;2024-01-11T08:09:44;20.27;;;9.90;;
14094;SDS011;18096;48.142;16.290;2024-01-11T08:12:16;23.53;;;11.67;;
14094;SDS011;18096;48.142;16.290;2024-01-11T08:14:42;15.57;;;8.90;;
14094;SDS011;18096;48.142;16.290;2024-01-11T08:17:08;19.30;;;10.60;;
14094;SDS011;18096;48.142;16.290;2024-01-11T08:19:34;24.57;;;10.30;;
14094;SDS011;18096;48.142;16.290;2024-01-11T08:22:00;26.23;;;10.50;;
14094;SDS011;18096;48.142;16.290;2024-01-11T08:24:25;20.30;;;8.67;;
14094;SDS011;18096;48.142;16.290;2024-01-11T08:26:51;19.87;;;9.63;;
14094;SDS011;18096;48.142;16.290;2024-01-11T08:29:17;22.53;;;11.60;;
14094;SDS011;18096;48.142;16.290;2024-01-11T08:31:45;32.10;;;10.50;;
14094;SDS011;18096;48.142;16.290;2024-01-11T08:34:11;20.60;;;11.10;;
14094;SDS011;18096;48.142;16.290;2024-01-11T08:36:37;27.80;;;9.63;;
14094;SDS011;18096;48.142;16.290;2024-01-11T08:39:04;21.47;;;9.30;;
14094;SDS011;18096;48.142;16.290;2024-01-11T08:41:37;25.83;;;9.77;;
14094;SDS011;18096;48.142;16.290;2024-01-11T08:44:03;15.33;;;8.00;;
14094;SDS011;18096;48.142;16.290;2024-01-11T08:46:32;21.23;;;10.30;;
14094;SDS011;18096;48.142;16.290;2024-01-11T08:48:59;23.53;;;9.07;;
14094;SDS011;18096;48.142;16.290;2024-01-11T08:51:26;17.17;;;10.43;;
14094;SDS011;18096;48.142;16.290;2024-01-11T08:53:52;35.60;;;9.37;;
14094;SDS011;18096;48.142;16.290;2024-01-11T08:56:18;26.20;;;11.47;;
14094;SDS011;18096;48.142;16.290;2024-01-11T08:58:43;19.03;;;9.37;;
14094;SDS011;18096;48.142;16.290;2024-01-11T09:01:09;32.50;;;11.33;;
14094;SDS011;18096;48.142;16.290;2024-01-11T09:03:36;32.47;;;11.00;;
14094;SDS011;18096;48.142;16.290;2024-01-11T09:06:02;23.70;;;9.93;;
14094;SDS011;18096;48.142;16.290;2024-01-11T09:08:29;21.03;;;10.10;;
14094;SDS011;18096;48.142;16.290;2024-01-11T09:10:55;22.33;;;11.37;;
14094;SDS011;18096;48.142;16.290;2024-01-11T09:13:23;25.37;;;9.33;;
14094;SDS011;18096;48.142;16.290;2024-01-11T09:15:51;20.97;;;11.03;;
14094;SDS011;18096;48.142;16.290;2024-01-11T09:18:17;15.83;;;9.80;;
14094;SDS011;18096;48.142;16.290;2024-01-11T09:20:43;17.90;;;7.50;;
14094;SDS011;18096;48.142;16.290;2024-01-11T09:23:08;22.33;;;11.10;;
14094;SDS011;18096;48.142;16.290;2024-01-11T09:25:34;18.67;;;9.00;;
14094;SDS011;18096;48.142;16.290;2024-01-11T09:28:00;22.17;;;11.30;;
14094;SDS011;18096;48.142;16.290;2024-01-11T09:30:26;36.10;;;10.37;;
14094;SDS011;18096;48.142;16.290;2024-01-11T09:32:51;33.83;;;11.50;;
14094;SDS011;18096;48.142;16.290;2024-01-11T09:35:17;34.43;;;11.73;;
14094;SDS011;18096;48.142;16.290;2024-01-11T09:37:43;20.13;;;8.60;;
14094;SDS011;18096;48.142;16.290;2024-01-11T09:40:11;24.83;;;13.03;;
14094;SDS011;18096;48.142;16.290;2024-01-11T09:42:37;25.97;;;10.27;;
14094;SDS011;18096;48.142;16.290;2024-01-11T09:45:06;21.50;;;11.87;;
14094;SDS011;18096;48.142;16.290;2024-01-11T09:47:35;29.87;;;11.67;;
14094;SDS011;18096;48.142;16.290;2024-01-11T09:50:04;21.67;;;10.10;;
14094;SDS011;18096;48.142;16.290;2024-01-11T09:52:31;29.40;;;11.73;;
14094;SDS011;18096;48.142;16.290;2024-01-11T09:55:00;21.27;;;11.17;;
14094;SDS011;18096;48.142;16.290;2024-01-11T09:57:30;17.40;;;9.43;;
14094;SDS011;18096;48.142;16.290;2024-01-11T09:59:58;26.27;;;14.45;;
14094;SDS011;18096;48.142;16.290;2024-01-11T10:02:24;28.13;;;12.80;;
14094;SDS011;18096;48.142;16.290;2024-01-11T10:04:52;26.00;;;11.80;;
14094;SDS011;18096;48.142;16.290;2024-01-11T10:07:21;27.00;;;14.77;;
14094;SDS011;18096;48.142;16.290;2024-01-11T10:09:48;28.80;;;15.05;;
14094;SDS011;18096;48.142;16.290;2024-01-11T10:12:15;28.08;;;15.05;;
14094;SDS011;18096;48.142;16.290;2024-01-11T10:14:42;29.33;;;15.88;;
14094;SDS011;18096;48.142;16.290;2024-01-11T10:17:08;23.50;;;12.17;;
14094;SDS011;18096;48.142;16.290;2024-01-11T10:19:33;21.20;;;12.23;;
14094;SDS011;18096;48.142;16.290;2024-01-11T10:21:59;30.57;;;12.43;;
14094;SDS011;18096;48.142;16.290;2024-01-11T10:24:25;28.33;;;13.63;;
14094;SDS011;18096;48.142;16.290;2024-01-11T10:26:57;27.73;;;15.15;;
14094;SDS011;18096;48.142;16.290;2024-01-11T10:29:35;30.17;;;15.15;;
14094;SDS011;18096;48.142;16.290;2024-01-11T10:32:02;27.57;;;13.37;;
14094;SDS011;18096;48.142;16.290;2024-01-11T10:34:29;21.47;;;12.97;;
14094;SDS011;18096;48.142;16.290;2024-01-11T10:36:55;28.47;;;12.57;;
14094;SDS011;18096;48.142;16.290;2024-01-11T10:39:23;23.67;;;12.90;;
14094;SDS011;18096;48.142;16.290;2024-01-11T10:41:51;29.00;;;14.40;;
14094;SDS011;18096;48.142;16.290;2024-01-11T10:44:21;28.00;;;12.67;;
14094;SDS011;18096;48.142;16.290;2024-01-11T10:46:50;24.53;;;12.67;;
14094;SDS011;18096;48.142;16.290;2024-01-11T10:49:20;23.17;;;12.27;;
14094;SDS011;18096;48.142;16.290;2024-01-11T10:51:52;22.07;;;11.20;;
14094;SDS011;18096;48.142;16.290;2024-01-11T10:54:22;21.77;;;10.70;;
14094;SDS011;18096;48.142;16.290;2024-01-11T10:56:49;27.70;;;12.10;;
14094;SDS011;18096;48.142;16.290;2024-01-11T10:59:16;24.23;;;11.10;;
14094;SDS011;18096;48.142;16.290;2024-01-11T11:01:46;23.60;;;10.93;;
14094;SDS011;18096;48.142;16.290;2024-01-11T11:04:12;23.10;;;11.20;;
14094;SDS011;18096;48.142;16.290;2024-01-11T11:06:40;21.73;;;9.97;;
14094;SDS011;18096;48.142;16.290;2024-01-11T11:09:08;16.17;;;10.37;;
14094;SDS011;18096;48.142;16.290;2024-01-11T11:11:35;20.57;;;10.43;;
14094;SDS011;18096;48.142;16.290;2024-01-11T11:14:03;23.87;;;11.40;;
14094;SDS011;18096;48.142;16.290;2024-01-11T11:16:30;17.10;;;9.20;;
14094;SDS011;18096;48.142;16.290;2024-01-11T11:18:55;14.97;;;7.77;;
14094;SDS011;18096;48.142;16.290;2024-01-11T11:21:22;26.27;;;13.70;;
14094;SDS011;18096;48.142;16.290;2024-01-11T11:23:49;30.58;;;15.70;;
14094;SDS011;18096;48.142;16.290;2024-01-11T11:26:16;29.27;;;11.20;;
14094;SDS011;18096;48.142;16.290;2024-01-11T11:28:42;19.47;;;9.40;;
14094;SDS011;18096;48.142;16.290;2024-01-11T11:31:10;25.40;;;13.13;;
14094;SDS011;18096;48.142;16.290;2024-01-11T11:33:36;25.50;;;13.80;;
14094;SDS011;18096;48.142;16.290;2024-01-11T11:36:02;30.10;;;13.70;;
14094;SDS011;18096;48.142;16.290;2024-01-11T11:38:29;20.00;;;11.07;;
14094;SDS011;18096;48.142;16.290;2024-01-11T11:40:59;13.33;;;8.20;;
14094;SDS011;18096;48.142;16.290;2024-01-11T11:51:08;23.53;;;9.13;;
14094;SDS011;18096;48.142;16.290;2024-01-11T11:53:40;27.95;;;12.93;;
14094;SDS011;18096;48.142;16.290;2024-01-11T11:56:07;19.37;;;10.47;;
14094;SDS011;18096;48.142;16.290;2024-01-11T11:58:42;18.90;;;9.50;;
14094;SDS011;18096;48.142;16.290;2024-01-11T12:01:08;17.70;;;8.80;;
14094;SDS011;18096;48.142;16.290;2024-01-11T12:03:35;14.10;;;8.90;;
14094;SDS011;18096;48.142;16.290;2024-01-11T12:06:02;16.67;;;9.37;;
14094;SDS011;18096;48.142;16.290;2024-01-11T12:08:33;15.37;;;8.53;;
14094;SDS011;18096;48.142;16.290;2024-01-11T12:10:59;17.70;;;8.90;;
14094;SDS011;18096;48.142;16.290;2024-01-11T12:13:25;12.47;;;7.87;;
14094;SDS011;18096;48.142;16.290;2024-01-11T12:15:51;13.53;;;8.03;;
14094;SDS011;18096;48.142;16.290;2024-01-11T12:18:17;18.23;;;8.23;;
14094;SDS011;18096;48.142;16.290;2024-01-11T12:20:42;15.93;;;7.43;;
14094;SDS011;18096;48.142;16.290;2024-01-11T12:23:08;13.23;;;7.57;;
14094;SDS011;18096;48.142;16.290;2024-01-11T12:25:34;14.00;;;8.70;;
14094;SDS011;18096;48.142;16.290;2024-01-11T12:28:01;14.53;;;8.53;;
14094;SDS011;18096;48.142;16.290;2024-01-11T12:30:26;19.93;;;9.60;;
14094;SDS011;18096;48.142;16.290;2024-01-11T12:32:53;11.10;;;7.90;;
14094;SDS011;18096;48.142;16.290;2024-01-11T12:35:20;18.50;;;9.43;;
14094;SDS011;18096;48.142;16.290;2024-01-11T12:37:55;11.13;;;7.23;;
14094;SDS011;18096;48.142;16.290;2024-01-11T12:40:23;17.80;;;8.90;;
14094;SDS011;18096;48.142;16.290;2024-01-11T12:42:49;14.57;;;9.13;;
14094;SDS011;18096;48.142;16.290;2024-01-11T12:45:15;23.30;;;9.73;;
14094;SDS011;18096;48.142;16.290;2024-01-11T12:47:42;11.03;;;6.97;;
14094;SDS011;18096;48.142;16.290;2024-01-11T12:50:09;14.43;;;8.80;;
14094;SDS011;18096;48.142;16.290;2024-01-11T12:52:36;15.73;;;8.27;;
14094;SDS011;18096;48.142;16.290;2024-01-11T12:55:02;22.13;;;8.60;;
14094;SDS011;18096;48.142;16.290;2024-01-11T12:57:29;23.00;;;8.80;;
14094;SDS011;18096;48.142;16.290;2024-01-11T12:59:55;17.23;;;7.80;;
14094;SDS011;18096;48.142;16.290;2024-01-11T13:02:41;9.60;;;6.70;;
14094;SDS011;18096;48.142;16.290;2024-01-11T13:05:11;18.30;;;8.63;;
14094;SDS011;18096;48.142;16.290;2024-01-11T13:07:36;15.33;;;7.00;;
14094;SDS011;18096;48.142;16.290;2024-01-11T13:10:03;16.13;;;8.13;;
14094;SDS011;18096;48.142;16.290;2024-01-11T13:12:30;16.97;;;9.20;;
14094;SDS011;18096;48.142;16.290;2024-01-11T13:14:56;13.57;;;8.50;;
14094;SDS011;18096;48.142;16.290;2024-01-11T13:17:21;19.07;;;9.97;;
14094;SDS011;18096;48.142;16.290;2024-01-11T13:19:47;19.13;;;8.97;;
14094;SDS011;18096;48.142;16.290;2024-01-11T13:22:13;19.67;;;9.10;;
14094;SDS011;18096;48.142;16.290;2024-01-11T13:24:39;12.57;;;8.50;;
14094;SDS011;18096;48.142;16.290;2024-01-11T13:27:04;10.80;;;7.10;;
14094;SDS011;18096;48.142;16.290;2024-01-11T13:29:30;13.57;;;6.83;;
14094;SDS011;18096;48.142;16.290;2024-01-11T13:31:56;15.83;;;9.47;;
14094;SDS011;18096;48.142;16.290;2024-01-11T13:34:21;19.33;;;8.20;;
14094;SDS011;18096;48.142;16.290;2024-01-11T13:36:48;18.37;;;10.67;;
14094;SDS011;18096;48.142;16.290;2024-01-11T13:39:13;21.90;;;11.13;;
14094;SDS011;18096;48.142;16.290;2024-01-11T13:41:39;14.80;;;9.40;;
14094;SDS011;18096;48.142;16.290;2024-01-11T13:44:06;16.67;;;8.17;;
14094;SDS011;18096;48.142;16.290;2024-01-11T13:46:32;20.40;;;9.13;;
14094;SDS011;18096;48.142;16.290;2024-01-11T13:48:58;21.50;;;8.67;;
14094;SDS011;18096;48.142;16.290;2024-01-11T13:51:23;19.47;;;9.20;;
14094;SDS011;18096;48.142;16.290;2024-01-11T13:53:49;22.00;;;10.60;;
14094;SDS011;18096;48.142;16.290;2024-01-11T13:56:15;20.63;;;10.03;;
14094;SDS011;18096;48.142;16.290;2024-01-11T13:58:41;20.50;;;8.87;;
14094;SDS011;18096;48.142;16.290;2024-01-11T14:01:06;33.53;;;10.40;;
14094;SDS011;18096;48.142;16.290;2024-01-11T14:03:32;31.43;;;11.83;;
14094;SDS011;18096;48.142;16.290;2024-01-11T14:05:58;18.27;;;10.37;;
14094;SDS011;18096;48.142;16.290;2024-01-11T14:08:25;22.83;;;9.40;;
14094;SDS011;18096;48.142;16.290;2024-01-11T14:10:51;15.70;;;10.17;;
14094;SDS011;18096;48.142;16.290;2024-01-11T14:13:17;15.17;;;8.10;;
14094;SDS011;18096;48.142;16.290;2024-01-11T14:15:42;16.30;;;9.60;;
14094;SDS011;18096;48.142;16.290;2024-01-11T14:18:08;14.17;;;8.57;;
14094;SDS011;18096;48.142;16.290;2024-01-11T14:20:34;20.70;;;10.60;;